Ana Sayfa
METAR-TAF:

METAR-TAF

Havaalanları :

Tulça, Romanya

Enlem: 45-11N, Boylam: 028-49E, yükseklik: 4 m

Güncel hava durumu gözlemi

Rapor saat 03:00 UTC de 31 dakika önce yapıldı.
Rüzgar kuzeydan 14 kt
Sıcaklık -10°C
Nem 79%
Basınç 1022 hPa
Görüş mesafesi 10 km veya daha fazla

METAR: LRTC 260300Z AUTO 36014KT 9999 FEW130/// BKN160/// M10/M13 Q1022

Saat: 05:31 (03:31 UTC)

Tahmin

Rapor saat 14:00 UTC de 13 saat ve 31 dakika önce yapıldı.
Ayın 25'si saat 15 UTC'den ayın 25'si saat 24 UTC'ye kadar geçerli Tahmin
Rüzgar kuzey/kuzeydoğudan 14 kt
Görüş mesafesi 10 km veya daha fazla
2000 ft yükseklikte parçalı çok bulutlu

TAF: LRTC 251400Z 2515/2524 02014KT 9999 BKN020

4.000'den fazla havaalanı için hava durumu gözlemleri ve tahminleri (METAR ve TAF raporları).

Kullanılabilir istasyonlar harita üzerinde sarı ve kırmızı noktalarla gösterilir.

İstasyonun adını görmek için fareyi noktanın üzerinde gezdirin.

Sonrasında hava gözlem ve tahminlerini görmek için tıklayın.

Haritayı değiştirmek için: yaklaştırmak için siyah artı işaretli yeşil düğmeye ve uzaklaştırmak için de eksi işaretli düğmeye hızla tıklayın; bitişik haritalar için yeşil okları kullanın.


METAR-TAF: